KFAF/FAF METAR and TAF weather

Enter ICAO airport designator
Station Type Date Time Source
KFAF METAR 2020/07/12 17:56 UTC NOAA

KFAF 121756Z AUTO 00000KT 10SM CLR 32/19 A2978 RMK AO2 SLP088 T03240193 10327 20265 55007 $


Station Type Date Time Source
KFAF Decoded METAR 2020/07/12 17:56 UTC NOAA

Fort Eustis / Felker, VA, United States (KFAF) 37-08N 076-37W
Jul 12, 2020 - 01:56 PM EDT / 2020.07.12 1756 UTC
Wind: Calm:0
Visibility: 10 mile(s):0
Sky conditions: clear
Temperature: 90.3 F (32.4 C)
Dew Point: 66.7 F (19.3 C)
Relative Humidity: 46%
Pressure (altimeter): 29.78 in. Hg (1008 hPa)
Pressure tendency: 0.02 inches (0.7 hPa) lower than three hours ago
ob: KFAF 121756Z AUTO 00000KT 10SM CLR 32/19 A2978 RMK AO2 SLP088 T03240193 10327 20265 55007
cycle: 18

Station Type Date Time Source
KFAF TAF 2020/07/10 18:09 UTC NOAA

TAF TAF KFAF 101800Z 1018/1124 30010KT 9999 SCT020 BKN030 QNH2972INS
BECMG 1100/1101 VRB06KT 9999 SCT030 QNH2970INS
BECMG 1115/1116 27009KT 9999 SCT060 BKN140 QNH2971INS
BECMG 1117/1118 22010G15KT 9999 FEW050 QNH2965INS TX32/1018Z TN26/1109Z LAST NO
AMDS AFT 1023 NEXT 1310

Example: see airport list